createdAt,value
2019-03-17T00:00:39.516Z,81.10
2019-03-17T00:04:17.929Z,81.10
2019-03-17T00:04:30.439Z,81.30
2019-03-17T00:05:22.235Z,81.30
2019-03-17T00:06:31.218Z,81.20
2019-03-17T00:07:53.288Z,81.20
2019-03-17T00:08:55.322Z,81.30
2019-03-17T00:10:02.094Z,81.20
2019-03-17T00:11:08.359Z,81.40
2019-03-17T00:12:13.773Z,81.40
2019-03-17T00:13:19.438Z,81.30
2019-03-17T00:14:23.721Z,81.30
2019-03-17T00:15:38.464Z,81.40
2019-03-17T00:16:42.689Z,81.40
2019-03-17T00:17:53.758Z,81.30
2019-03-17T00:18:58.631Z,81.50
2019-03-17T00:20:04.567Z,81.40
2019-03-17T00:21:14.732Z,81.40
2019-03-17T00:22:32.469Z,81.40
2019-03-17T00:23:33.021Z,81.20
2019-03-17T00:24:35.325Z,81.20
2019-03-17T00:25:46.736Z,81.30
2019-03-17T00:26:57.956Z,81.30
2019-03-17T00:29:33.291Z,81.30
2019-03-17T00:30:58.549Z,81.20
2019-03-17T00:32:10.355Z,81.50
2019-03-17T00:33:07.287Z,81.60
2019-03-17T00:34:12.569Z,81.70
2019-03-17T00:35:19.581Z,81.60
2019-03-17T00:36:33.147Z,81.70
2019-03-17T00:37:36.198Z,82.00
2019-03-17T00:38:52.969Z,82.00
2019-03-17T00:40:11.277Z,82.10
2019-03-17T00:41:25.346Z,82.20
2019-03-17T00:42:26.071Z,82.40
2019-03-17T00:43:34.530Z,82.40
2019-03-17T00:44:43.790Z,82.50
2019-03-17T00:45:51.218Z,83.40
2019-03-17T00:47:01.031Z,82.60
2019-03-17T00:48:03.392Z,82.90
2019-03-17T00:49:07.737Z,82.70
2019-03-17T00:50:18.725Z,82.80
2019-03-17T00:51:23.873Z,83.00
2019-03-17T00:52:36.706Z,83.00
2019-03-17T00:53:59.005Z,83.10
2019-03-17T00:55:07.962Z,83.40
2019-03-17T00:56:17.296Z,83.40
2019-03-17T00:57:46.491Z,83.30
2019-03-17T00:58:49.070Z,83.50
2019-03-17T00:59:58.547Z,83.40
2019-03-17T01:00:53.709Z,83.60
2019-03-17T01:02:04.941Z,83.60
2019-03-17T01:05:00.544Z,83.60
2019-03-17T01:06:16.120Z,83.80
2019-03-17T01:07:24.570Z,83.70
2019-03-17T01:08:37.097Z,83.90
2019-03-17T01:09:43.671Z,84.00
2019-03-17T01:10:48.093Z,84.00
2019-03-17T01:11:53.961Z,84.00
2019-03-17T01:13:04.270Z,84.20
2019-03-17T01:14:13.915Z,84.20
2019-03-17T01:15:26.289Z,84.30
2019-03-17T01:16:30.576Z,84.20
2019-03-17T01:17:44.075Z,84.20
2019-03-17T01:19:45.412Z,84.30
2019-03-17T01:20:07.947Z,84.50
2019-03-17T01:21:13.957Z,84.60
2019-03-17T01:22:29.320Z,84.60
2019-03-17T01:23:28.197Z,84.70
2019-03-17T01:24:32.393Z,84.90
2019-03-17T01:25:52.228Z,84.80
2019-03-17T01:26:44.868Z,84.80
2019-03-17T01:27:51.418Z,84.90
2019-03-17T01:29:03.145Z,85.00
2019-03-17T01:30:06.581Z,85.00
2019-03-17T01:31:10.903Z,85.90
2019-03-17T01:32:31.746Z,85.20
2019-03-17T01:33:39.158Z,85.20
2019-03-17T01:36:17.840Z,85.40
2019-03-17T01:37:27.728Z,85.50
2019-03-17T01:38:33.156Z,85.50
2019-03-17T01:39:37.257Z,85.70
2019-03-17T01:40:41.527Z,85.60
2019-03-17T01:41:49.987Z,85.80
2019-03-17T01:42:57.161Z,85.80
2019-03-17T01:44:01.334Z,85.90
2019-03-17T01:45:07.595Z,86.00
2019-03-17T01:46:20.268Z,86.10
2019-03-17T01:47:28.686Z,86.30
2019-03-17T01:48:35.695Z,86.30
2019-03-17T01:49:44.268Z,86.40
2019-03-17T01:50:48.408Z,86.50
2019-03-17T01:51:52.552Z,86.60
2019-03-17T01:52:57.104Z,86.80
2019-03-17T01:54:01.267Z,86.80
2019-03-17T01:55:08.144Z,86.90
2019-03-17T01:56:14.431Z,86.90
2019-03-17T01:57:21.510Z,87.00
2019-03-17T01:58:29.936Z,87.10
2019-03-17T01:59:35.724Z,87.20
2019-03-17T02:00:39.867Z,87.50
2019-03-17T02:01:44.060Z,87.60
2019-03-17T02:02:55.468Z,87.70
2019-03-17T02:03:59.665Z,87.80
2019-03-17T02:05:05.668Z,87.80
2019-03-17T02:06:12.034Z,87.80
2019-03-17T02:07:16.317Z,87.90
2019-03-17T02:08:20.618Z,88.00
2019-03-17T02:09:26.516Z,88.10
2019-03-17T02:10:33.880Z,88.10
2019-03-17T02:11:38.635Z,88.40
2019-03-17T02:12:48.113Z,87.90
2019-03-17T02:13:51.894Z,88.60
2019-03-17T02:14:56.160Z,88.60
2019-03-17T02:16:00.512Z,88.50
2019-03-17T02:17:04.824Z,88.60
2019-03-17T02:18:09.123Z,88.80
2019-03-17T02:19:13.328Z,88.90
2019-03-17T02:20:17.580Z,89.10
2019-03-17T02:21:22.938Z,89.00
2019-03-17T02:22:31.369Z,89.20
2019-03-17T02:23:35.682Z,89.10
2019-03-17T02:24:41.138Z,89.20
2019-03-17T02:25:49.547Z,89.20
2019-03-17T02:26:52.390Z,89.30
2019-03-17T02:27:58.205Z,89.50
2019-03-17T02:29:03.885Z,89.60
2019-03-17T02:30:13.458Z,89.50
2019-03-17T02:31:20.624Z,89.50
2019-03-17T02:32:24.882Z,90.10
2019-03-17T02:33:29.147Z,89.60
2019-03-17T02:34:34.937Z,89.70
2019-03-17T02:35:40.795Z,89.90
2019-03-17T02:36:45.102Z,90.00
2019-03-17T02:37:49.391Z,90.10
2019-03-17T02:38:53.803Z,90.00
2019-03-17T02:39:58.268Z,90.00
2019-03-17T02:41:09.356Z,90.00
2019-03-17T02:42:13.586Z,90.00
2019-03-17T02:43:20.042Z,90.00
2019-03-17T02:44:24.279Z,90.00
2019-03-17T02:45:31.357Z,90.00
2019-03-17T02:46:39.636Z,90.10
2019-03-17T02:47:45.716Z,90.10
2019-03-17T02:48:50.115Z,90.10
2019-03-17T02:49:54.393Z,90.20
2019-03-17T02:50:58.682Z,90.20
2019-03-17T02:52:04.494Z,90.30
2019-03-17T02:53:08.788Z,90.40
2019-03-17T02:54:14.027Z,90.40
2019-03-17T02:55:18.371Z,90.30
2019-03-17T02:56:22.579Z,90.30
2019-03-17T02:57:26.779Z,90.30
2019-03-17T02:58:32.389Z,90.30
2019-03-17T02:59:36.451Z,90.30
2019-03-17T03:00:44.214Z,90.30
2019-03-17T03:01:48.421Z,90.30
2019-03-17T03:02:52.510Z,90.30
2019-03-17T03:03:56.718Z,90.30
2019-03-17T03:05:00.870Z,90.40
2019-03-17T03:06:05.172Z,90.40
2019-03-17T03:07:09.335Z,90.40
2019-03-17T03:08:15.131Z,90.40
2019-03-17T03:09:19.239Z,90.40
2019-03-17T03:10:23.944Z,90.40
2019-03-17T03:11:31.266Z,90.50
2019-03-17T03:12:36.130Z,90.50
2019-03-17T03:13:42.605Z,90.50
2019-03-17T03:14:47.476Z,90.50
2019-03-17T03:15:59.034Z,90.60
2019-03-17T03:17:03.266Z,90.60
2019-03-17T03:18:07.493Z,90.60
2019-03-17T03:19:11.573Z,90.60
2019-03-17T03:20:16.821Z,90.60
2019-03-17T03:21:20.967Z,90.60
2019-03-17T03:22:25.050Z,90.70
2019-03-17T03:23:29.245Z,90.70
2019-03-17T03:24:33.318Z,90.70
2019-03-17T03:25:38.586Z,90.70
2019-03-17T03:26:42.741Z,90.70
2019-03-17T03:27:46.801Z,90.70
2019-03-17T03:28:50.996Z,90.70
2019-03-17T03:29:55.065Z,90.80
2019-03-17T03:30:59.308Z,90.80
2019-03-17T03:32:04.945Z,90.80
2019-03-17T03:33:09.037Z,90.80
2019-03-17T03:34:13.132Z,90.80
2019-03-17T03:35:17.204Z,90.90
2019-03-17T03:36:21.286Z,90.90
2019-03-17T03:37:25.491Z,90.90
2019-03-17T03:38:29.572Z,90.90
2019-03-17T03:39:33.676Z,90.90
2019-03-17T03:40:39.290Z,90.90
2019-03-17T03:41:45.012Z,90.90
2019-03-17T03:42:49.208Z,90.90
2019-03-17T03:43:53.390Z,90.90
2019-03-17T03:44:57.447Z,91.00
2019-03-17T03:46:01.525Z,91.00
2019-03-17T03:47:07.142Z,91.00
2019-03-17T03:48:11.867Z,91.00
2019-03-17T03:49:17.309Z,91.10
2019-03-17T03:50:21.456Z,91.00
2019-03-17T03:51:25.529Z,91.00
2019-03-17T03:52:29.615Z,91.10
2019-03-17T03:53:33.711Z,91.10
2019-03-17T03:54:37.881Z,91.10
2019-03-17T03:55:42.533Z,91.20
2019-03-17T03:56:46.677Z,91.20
2019-03-17T03:57:50.813Z,91.20
2019-03-17T03:58:55.984Z,91.20
2019-03-17T04:00:00.215Z,91.20
2019-03-17T04:01:04.800Z,91.20
2019-03-17T04:02:09.476Z,91.30
2019-03-17T04:03:14.239Z,91.30
2019-03-17T04:04:18.342Z,91.20
2019-03-17T04:05:22.626Z,91.30
2019-03-17T04:06:27.319Z,91.30
2019-03-17T04:07:32.149Z,91.40
2019-03-17T04:08:36.302Z,91.40
2019-03-17T04:09:40.362Z,91.50
2019-03-17T04:10:44.539Z,91.40
2019-03-17T04:11:48.593Z,91.50
2019-03-17T04:12:52.681Z,91.50
2019-03-17T04:13:56.893Z,91.50
2019-03-17T04:15:01.777Z,91.60
2019-03-17T04:16:06.035Z,91.90
2019-03-17T04:17:10.229Z,91.70
2019-03-17T04:18:14.441Z,91.70
2019-03-17T04:19:20.139Z,91.70
2019-03-17T04:20:24.241Z,91.80
2019-03-17T04:21:28.376Z,91.80
2019-03-17T04:22:32.516Z,91.90
2019-03-17T04:23:40.388Z,91.90
2019-03-17T04:24:45.198Z,91.90
2019-03-17T04:25:49.451Z,92.00
2019-03-17T04:26:55.075Z,92.00
2019-03-17T04:27:59.236Z,92.00
2019-03-17T04:29:03.396Z,92.00
2019-03-17T04:30:12.715Z,92.10
2019-03-17T04:31:16.810Z,92.00
2019-03-17T04:32:25.622Z,92.00
2019-03-17T04:33:29.789Z,92.00
2019-03-17T04:34:34.764Z,92.10
2019-03-17T04:35:38.906Z,92.10
2019-03-17T04:36:43.067Z,92.10
2019-03-17T04:37:47.196Z,92.50
2019-03-17T04:38:51.424Z,92.20
2019-03-17T04:39:55.731Z,92.10
2019-03-17T04:40:59.927Z,92.20
2019-03-17T04:42:04.244Z,92.20
2019-03-17T04:43:09.599Z,92.20
2019-03-17T04:44:20.722Z,92.30
2019-03-17T04:45:20.439Z,92.20
2019-03-17T04:46:27.085Z,92.30
2019-03-17T04:47:37.256Z,92.40
2019-03-17T04:48:43.062Z,92.40
2019-03-17T04:49:47.702Z,92.40
2019-03-17T04:50:56.546Z,92.40
2019-03-17T04:51:59.803Z,92.50
2019-03-17T04:53:05.354Z,92.50
2019-03-17T04:54:19.098Z,92.50
2019-03-17T04:55:28.106Z,92.50
2019-03-17T04:56:36.562Z,92.50
2019-03-17T04:57:51.107Z,92.50
2019-03-17T04:59:00.328Z,92.50
2019-03-17T05:00:09.610Z,92.90
2019-03-17T05:01:14.417Z,92.60
2019-03-17T05:02:21.205Z,92.60
2019-03-17T05:03:25.337Z,92.70
2019-03-17T05:04:30.723Z,92.70
2019-03-17T05:05:36.116Z,92.70
2019-03-17T05:06:51.986Z,92.70
2019-03-17T05:07:50.965Z,92.70
2019-03-17T05:08:55.207Z,92.80
2019-03-17T05:10:03.719Z,92.80
2019-03-17T05:11:13.556Z,92.80
2019-03-17T05:12:16.907Z,92.90
2019-03-17T05:13:23.190Z,92.80
2019-03-17T05:14:31.873Z,92.90
2019-03-17T05:15:38.034Z,92.90
2019-03-17T05:16:51.762Z,93.00
2019-03-17T05:17:57.433Z,92.90
2019-03-17T05:20:26.489Z,93.00
2019-03-17T05:21:32.064Z,93.00
2019-03-17T05:22:37.358Z,93.00
2019-03-17T05:23:48.971Z,93.00
2019-03-17T05:25:02.584Z,93.00
2019-03-17T05:26:10.359Z,92.90
2019-03-17T05:27:16.708Z,93.00
2019-03-17T05:28:23.685Z,93.00
2019-03-17T05:29:30.475Z,93.00
2019-03-17T05:30:35.601Z,93.00
2019-03-17T05:31:46.266Z,93.00
2019-03-17T05:32:52.119Z,93.00
2019-03-17T05:34:05.008Z,93.00
2019-03-17T05:35:18.271Z,92.90
2019-03-17T05:36:23.904Z,93.00
2019-03-17T05:37:38.893Z,93.00
2019-03-17T05:38:45.303Z,92.90
2019-03-17T05:39:55.354Z,92.90
2019-03-17T05:40:59.717Z,92.90
2019-03-17T05:42:05.139Z,92.90
2019-03-17T05:43:18.100Z,92.90
2019-03-17T05:44:24.784Z,92.90
2019-03-17T05:45:33.054Z,92.80
2019-03-17T05:46:43.418Z,92.80
2019-03-17T05:47:58.847Z,92.80
2019-03-17T05:49:09.497Z,92.80
2019-03-17T05:50:20.834Z,92.80
2019-03-17T05:51:22.932Z,92.80
2019-03-17T05:52:40.660Z,92.80
2019-03-17T05:55:18.612Z,92.80
2019-03-17T05:56:33.203Z,92.80
2019-03-17T05:57:44.703Z,92.80
2019-03-17T05:58:55.956Z,92.80
2019-03-17T06:00:04.201Z,92.80
2019-03-17T06:01:03.846Z,92.80
2019-03-17T06:02:13.944Z,92.70
2019-03-17T06:03:25.063Z,92.70
2019-03-17T06:04:39.104Z,92.70
2019-03-17T06:05:56.835Z,92.70
2019-03-17T06:07:03.378Z,92.70
2019-03-17T06:08:21.036Z,92.70
2019-03-17T06:09:29.914Z,92.70
2019-03-17T06:10:40.096Z,92.70
2019-03-17T06:12:07.343Z,92.70
2019-03-17T06:13:04.297Z,92.80
2019-03-17T06:17:17.207Z,92.70
2019-03-17T06:17:36.447Z,92.70
2019-03-17T06:20:07.308Z,92.70
2019-03-17T06:20:56.857Z,92.70
2019-03-17T06:22:06.506Z,92.60
2019-03-17T06:23:18.973Z,92.60
2019-03-17T06:24:31.392Z,92.60
2019-03-17T06:25:44.454Z,92.60
2019-03-17T06:28:22.712Z,92.60
2019-03-17T06:29:31.598Z,92.60
2019-03-17T06:30:49.169Z,92.60
2019-03-17T06:32:14.359Z,92.60
2019-03-17T06:34:18.221Z,92.80
2019-03-17T06:34:57.432Z,92.50
2019-03-17T06:36:06.605Z,92.40
2019-03-17T06:38:36.418Z,92.40
2019-03-17T06:39:46.544Z,92.40
2019-03-17T06:41:11.036Z,92.30
2019-03-17T06:42:26.415Z,92.30
2019-03-17T06:43:32.308Z,92.30
2019-03-17T06:44:56.700Z,92.30
2019-03-17T06:46:05.532Z,92.30
2019-03-17T06:47:34.183Z,92.30
2019-03-17T06:49:45.922Z,92.30
2019-03-17T06:51:07.331Z,92.30
2019-03-17T06:52:53.367Z,92.20
2019-03-17T06:53:19.277Z,92.20
2019-03-17T06:54:42.421Z,92.20
2019-03-17T06:57:34.618Z,92.00
2019-03-17T06:58:25.290Z,92.00
2019-03-17T07:00:12.093Z,92.00
2019-03-17T07:01:54.832Z,92.00
2019-03-17T07:04:15.928Z,91.80
2019-03-17T07:04:59.957Z,91.80
2019-03-17T07:07:14.709Z,92.10
2019-03-17T07:07:19.203Z,91.60
2019-03-17T07:08:40.055Z,91.60
2019-03-17T07:09:36.807Z,91.50
2019-03-17T07:13:51.361Z,91.50
2019-03-17T07:15:25.001Z,91.40
2019-03-17T07:16:32.939Z,91.30
2019-03-17T07:17:45.991Z,91.20
2019-03-17T07:19:02.603Z,91.10
2019-03-17T07:20:08.409Z,91.10
2019-03-17T07:21:35.359Z,91.00
2019-03-17T07:22:35.084Z,91.00
2019-03-17T07:23:46.741Z,91.00
2019-03-17T07:26:24.107Z,91.00
2019-03-17T07:28:30.302Z,90.90
2019-03-17T07:29:15.116Z,90.80
2019-03-17T07:31:35.792Z,90.80
2019-03-17T07:33:32.385Z,90.60
2019-03-17T07:34:05.969Z,90.50
2019-03-17T07:35:20.913Z,90.50
2019-03-17T07:39:12.891Z,90.30
2019-03-17T07:40:19.307Z,90.30
2019-03-17T07:43:13.398Z,90.10
2019-03-17T07:44:21.283Z,90.10
2019-03-17T07:45:47.934Z,90.00
2019-03-17T07:48:01.361Z,89.60
2019-03-17T07:49:16.975Z,89.50
2019-03-17T07:51:31.368Z,89.00
2019-03-17T07:52:05.580Z,89.40
2019-03-17T07:52:56.995Z,88.90
2019-03-17T07:53:59.193Z,89.70
2019-03-17T07:56:35.787Z,88.90
2019-03-17T07:58:07.883Z,88.80
2019-03-17T07:59:02.383Z,88.70
2019-03-17T08:01:39.303Z,88.20
2019-03-17T08:02:48.385Z,88.10
2019-03-17T08:04:11.625Z,88.10
2019-03-17T08:05:20.847Z,88.00
2019-03-17T08:06:32.939Z,88.10
2019-03-17T08:07:48.305Z,88.20
2019-03-17T08:08:57.745Z,88.10
2019-03-17T08:10:06.673Z,87.90
2019-03-17T08:11:23.167Z,87.70
2019-03-17T08:12:34.176Z,87.50
2019-03-17T08:13:39.650Z,88.00
2019-03-17T08:14:45.928Z,87.00
2019-03-17T08:16:40.160Z,87.00
2019-03-17T08:17:10.206Z,86.80
2019-03-17T08:18:22.813Z,86.50
2019-03-17T08:19:32.187Z,86.40
2019-03-17T08:20:43.612Z,86.10
2019-03-17T08:23:26.597Z,85.40
2019-03-17T08:24:27.660Z,85.10
2019-03-17T08:25:33.353Z,84.70
2019-03-17T08:27:39.941Z,84.70
2019-03-17T08:27:56.433Z,83.90
2019-03-17T08:29:05.751Z,83.30
2019-03-17T08:30:18.457Z,84.30
2019-03-17T08:31:33.377Z,83.40
2019-03-17T08:32:45.826Z,83.40
2019-03-17T08:33:55.350Z,83.50
2019-03-17T08:35:08.192Z,83.60
2019-03-17T08:36:41.161Z,84.30
2019-03-17T08:39:15.868Z,83.20
2019-03-17T08:40:28.552Z,82.10
2019-03-17T08:41:57.642Z,82.20
2019-03-17T08:43:13.875Z,82.10
2019-03-17T08:46:22.392Z,82.00
2019-03-17T08:46:43.148Z,82.00
2019-03-17T08:47:57.985Z,81.60
2019-03-17T08:50:39.626Z,80.90
2019-03-17T08:51:48.493Z,80.90
2019-03-17T08:54:25.628Z,81.00
2019-03-17T08:54:26.623Z,80.80
2019-03-17T08:55:33.036Z,80.30
2019-03-17T08:57:28.980Z,80.50
2019-03-17T08:57:50.587Z,80.70
2019-03-17T08:59:04.856Z,80.60
2019-03-17T09:00:25.063Z,80.70
2019-03-17T09:01:31.796Z,81.10
2019-03-17T09:02:41.813Z,80.70
2019-03-17T09:03:48.940Z,80.90
2019-03-17T09:04:55.627Z,80.10
2019-03-17T09:06:02.494Z,79.90
2019-03-17T09:07:07.651Z,80.00
2019-03-17T09:08:18.931Z,79.50
2019-03-17T09:09:23.861Z,79.40
2019-03-17T09:10:31.227Z,79.40
2019-03-17T09:11:39.547Z,79.40
2019-03-17T09:12:47.736Z,79.50
2019-03-17T09:13:53.745Z,79.40
2019-03-17T09:15:02.800Z,79.10
2019-03-17T09:16:13.435Z,79.10
2019-03-17T09:17:23.408Z,79.00
2019-03-17T09:18:38.902Z,78.60
2019-03-17T09:19:41.436Z,78.60
2019-03-17T09:20:52.051Z,78.30
2019-03-17T09:21:58.045Z,78.10
2019-03-17T09:24:22.423Z,78.30
2019-03-17T09:25:38.905Z,78.40
2019-03-17T09:26:46.228Z,78.70
2019-03-17T09:28:01.261Z,79.00
2019-03-17T09:29:09.658Z,78.70
2019-03-17T09:30:22.305Z,78.60
2019-03-17T09:31:37.663Z,78.60
2019-03-17T09:32:36.705Z,77.50
2019-03-17T09:33:41.129Z,76.50
2019-03-17T09:34:53.171Z,76.80
2019-03-17T09:39:29.386Z,73.60
2019-03-17T09:39:57.481Z,74.80
2019-03-17T09:41:03.018Z,74.30
2019-03-17T09:42:16.281Z,74.40
2019-03-17T09:43:38.806Z,74.40
2019-03-17T09:44:43.811Z,73.50
2019-03-17T09:47:29.651Z,72.40
2019-03-17T09:48:41.410Z,71.80
2019-03-17T09:49:59.944Z,71.90
2019-03-17T09:50:58.662Z,70.90
2019-03-17T09:52:08.454Z,69.30
2019-03-17T09:53:29.878Z,68.80
2019-03-17T09:54:35.460Z,68.70
2019-03-17T09:55:42.913Z,68.60
2019-03-17T09:56:54.120Z,68.70
2019-03-17T09:58:00.747Z,69.10
2019-03-17T09:59:09.563Z,69.70
2019-03-17T10:00:39.319Z,69.60
2019-03-17T10:01:49.258Z,69.60
2019-03-17T10:03:00.094Z,68.20
2019-03-17T10:04:16.008Z,66.80
2019-03-17T10:05:34.058Z,66.80
2019-03-17T10:06:38.368Z,67.00
2019-03-17T10:07:47.947Z,67.80
2019-03-17T10:10:29.209Z,65.60
2019-03-17T10:11:44.975Z,65.70
2019-03-17T10:12:56.043Z,65.00
2019-03-17T10:14:11.309Z,64.70
2019-03-17T10:15:27.735Z,65.40
2019-03-17T10:16:34.909Z,65.80
2019-03-17T10:17:52.351Z,66.00
2019-03-17T10:19:16.560Z,66.30
2019-03-17T10:20:41.966Z,66.70
2019-03-17T10:21:48.159Z,66.30
2019-03-17T10:22:59.490Z,66.50
2019-03-17T10:24:05.020Z,65.70
2019-03-17T10:25:20.175Z,66.60
2019-03-17T10:26:30.833Z,66.60
2019-03-17T10:27:44.646Z,66.70
2019-03-17T10:28:57.998Z,66.90
2019-03-17T10:30:54.061Z,67.20
2019-03-17T10:31:27.708Z,67.40
2019-03-17T10:32:43.356Z,67.40
2019-03-17T10:33:55.445Z,67.50
2019-03-17T10:35:05.790Z,67.20
2019-03-17T10:36:08.050Z,67.40
2019-03-17T10:37:16.326Z,67.20
2019-03-17T10:38:35.669Z,66.90
2019-03-17T10:39:33.687Z,66.70
2019-03-17T10:40:40.954Z,66.50
2019-03-17T10:41:46.760Z,66.80
2019-03-17T10:42:53.865Z,66.20
2019-03-17T10:44:06.642Z,65.60
2019-03-17T10:45:21.607Z,65.00
2019-03-17T10:46:29.352Z,65.20
2019-03-17T10:49:03.810Z,64.70
2019-03-17T10:50:16.950Z,64.50
2019-03-17T10:51:21.370Z,64.50
2019-03-17T10:53:55.066Z,61.90
2019-03-17T10:55:02.308Z,61.90
2019-03-17T10:56:06.459Z,62.20
2019-03-17T10:57:13.660Z,61.20
2019-03-17T10:58:23.725Z,61.30
2019-03-17T10:59:32.589Z,61.30
2019-03-17T11:00:38.236Z,61.30
2019-03-17T11:01:42.489Z,61.30
2019-03-17T11:02:46.751Z,61.20
2019-03-17T11:03:52.388Z,61.80
2019-03-17T11:04:59.770Z,61.50
2019-03-17T11:06:09.208Z,61.30
2019-03-17T11:07:16.272Z,61.50
2019-03-17T11:08:24.873Z,61.40
2019-03-17T11:09:31.439Z,61.40
2019-03-17T11:10:38.267Z,61.50
2019-03-17T11:11:43.125Z,60.50
2019-03-17T11:12:49.684Z,60.20
2019-03-17T11:13:54.139Z,59.90
2019-03-17T11:15:00.381Z,59.90
2019-03-17T11:16:04.572Z,59.70
2019-03-17T11:17:17.847Z,59.90
2019-03-17T11:18:24.480Z,60.00
2019-03-17T11:19:34.079Z,59.70
2019-03-17T11:20:38.281Z,59.80
2019-03-17T11:21:43.978Z,60.40
2019-03-17T11:22:49.238Z,60.50
2019-03-17T11:23:54.555Z,60.70
2019-03-17T11:24:58.644Z,60.80
2019-03-17T11:26:05.817Z,60.80
2019-03-17T11:27:09.952Z,61.40
2019-03-17T11:28:15.828Z,59.50
2019-03-17T11:29:21.118Z,59.50
2019-03-17T11:30:25.257Z,59.60
2019-03-17T11:31:29.466Z,59.80
2019-03-17T11:32:37.009Z,59.50
2019-03-17T11:33:44.068Z,59.20
2019-03-17T11:34:49.604Z,59.40
2019-03-17T11:36:07.832Z,58.90
2019-03-17T11:37:23.628Z,58.70
2019-03-17T11:38:29.665Z,58.90
2019-03-17T11:39:53.108Z,59.00
2019-03-17T11:41:04.995Z,58.90
2019-03-17T11:42:25.274Z,58.70
2019-03-17T11:43:33.116Z,58.40
2019-03-17T11:44:40.244Z,58.10
2019-03-17T11:45:47.656Z,57.90
2019-03-17T11:46:59.626Z,58.10
2019-03-17T11:48:15.792Z,58.60
2019-03-17T11:49:32.278Z,58.10
2019-03-17T11:50:36.436Z,57.80
2019-03-17T11:51:42.467Z,57.40
2019-03-17T11:54:19.062Z,57.40
2019-03-17T11:54:25.276Z,57.40
2019-03-17T11:55:31.976Z,57.50
2019-03-17T11:56:41.249Z,57.80
2019-03-17T11:57:48.650Z,57.80
2019-03-17T11:58:58.674Z,58.10
2019-03-17T12:00:22.934Z,57.40
2019-03-17T12:01:28.438Z,57.20
2019-03-17T12:02:37.703Z,56.70
2019-03-17T12:03:47.771Z,56.50
2019-03-17T12:04:53.883Z,56.20
2019-03-17T12:06:19.750Z,56.50
2019-03-17T12:07:25.772Z,56.90
2019-03-17T12:08:37.323Z,57.20
2019-03-17T12:09:49.938Z,57.40
2019-03-17T12:10:51.843Z,56.90
2019-03-17T12:12:07.107Z,57.30
2019-03-17T12:13:11.634Z,57.00
2019-03-17T12:14:22.946Z,55.90
2019-03-17T12:15:42.096Z,55.90
2019-03-17T12:16:49.851Z,56.40
2019-03-17T12:17:58.026Z,56.80
2019-03-17T12:19:07.049Z,57.10
2019-03-17T12:20:23.208Z,57.50
2019-03-17T12:21:25.594Z,57.20
2019-03-17T12:22:47.796Z,57.10
2019-03-17T12:23:50.152Z,56.70
2019-03-17T12:25:00.409Z,56.10
2019-03-17T12:26:11.691Z,55.80
2019-03-17T12:27:33.800Z,55.70
2019-03-17T12:28:38.021Z,55.10
2019-03-17T12:29:49.639Z,54.70
2019-03-17T12:31:27.356Z,55.10
2019-03-17T12:32:15.691Z,55.50
2019-03-17T12:33:26.964Z,53.90
2019-03-17T12:34:41.814Z,53.80
2019-03-17T12:37:25.582Z,53.70
2019-03-17T12:38:29.403Z,53.30
2019-03-17T12:39:43.595Z,53.60
2019-03-17T12:40:50.256Z,53.70
2019-03-17T12:41:58.348Z,53.40
2019-03-17T12:42:59.495Z,52.60
2019-03-17T12:44:17.209Z,52.30
2019-03-17T12:45:26.324Z,52.30
2019-03-17T12:46:43.961Z,52.90
2019-03-17T12:47:49.500Z,51.80
2019-03-17T12:49:05.934Z,51.60
2019-03-17T12:50:08.233Z,51.80
2019-03-17T12:51:19.825Z,51.80
2019-03-17T12:52:30.296Z,51.40
2019-03-17T12:53:40.951Z,51.60
2019-03-17T12:54:49.969Z,51.90
2019-03-17T12:55:59.496Z,51.40
2019-03-17T12:57:07.384Z,51.20
2019-03-17T12:58:30.774Z,51.20
2019-03-17T12:59:40.008Z,51.40
2019-03-17T13:00:47.288Z,51.80
2019-03-17T13:01:59.566Z,51.80
2019-03-17T13:03:05.564Z,52.10
2019-03-17T13:04:17.883Z,51.90
2019-03-17T13:05:26.877Z,51.90
2019-03-17T13:06:33.160Z,51.90
2019-03-17T13:07:46.489Z,51.90
2019-03-17T13:09:04.537Z,51.60
2019-03-17T13:10:14.638Z,50.60
2019-03-17T13:11:18.364Z,50.50
2019-03-17T13:12:29.870Z,50.30
2019-03-17T13:13:52.832Z,50.20
2019-03-17T13:15:04.946Z,49.60
2019-03-17T13:16:19.066Z,49.10
2019-03-17T13:17:18.012Z,49.60
2019-03-17T13:19:16.241Z,50.00
2019-03-17T13:19:43.656Z,50.30
2019-03-17T13:20:56.333Z,50.30
2019-03-17T13:22:07.446Z,49.80
2019-03-17T13:23:18.123Z,49.70
2019-03-17T13:24:30.795Z,49.70
2019-03-17T13:26:47.792Z,48.70
2019-03-17T13:27:55.578Z,48.80
2019-03-17T13:29:11.501Z,48.40
2019-03-17T13:30:27.251Z,48.50
2019-03-17T13:31:41.820Z,48.50
2019-03-17T13:32:57.251Z,48.80
2019-03-17T13:34:15.414Z,48.70
2019-03-17T13:35:13.958Z,48.20
2019-03-17T13:36:40.897Z,48.00
2019-03-17T13:37:42.252Z,47.90
2019-03-17T13:38:50.282Z,47.50
2019-03-17T13:40:39.665Z,47.50
2019-03-17T13:41:46.635Z,47.90
2019-03-17T13:44:11.862Z,48.00
2019-03-17T13:45:23.230Z,48.00
2019-03-17T13:46:33.756Z,48.00
2019-03-17T13:47:44.887Z,47.70
2019-03-17T13:49:47.179Z,48.00
2019-03-17T13:50:18.085Z,47.60
2019-03-17T13:51:44.014Z,47.60
2019-03-17T13:52:40.315Z,47.90
2019-03-17T13:53:57.828Z,47.80
2019-03-17T13:55:48.024Z,47.90
2019-03-17T13:57:49.067Z,47.80
2019-03-17T13:59:17.460Z,48.00
2019-03-17T14:00:02.802Z,47.60
2019-03-17T14:01:11.707Z,47.60
2019-03-17T14:02:17.495Z,47.30
2019-03-17T14:04:00.818Z,47.50
2019-03-17T14:04:55.695Z,47.60
2019-03-17T14:05:47.473Z,47.80
2019-03-17T14:06:53.313Z,47.80
2019-03-17T14:08:05.855Z,47.70
2019-03-17T14:09:24.389Z,47.60
2019-03-17T14:10:22.778Z,47.70
2019-03-17T14:11:36.695Z,47.80
2019-03-17T14:12:41.675Z,48.00
2019-03-17T14:13:53.059Z,47.60
2019-03-17T14:15:00.477Z,47.10
2019-03-17T14:16:15.599Z,46.90
2019-03-17T14:17:21.535Z,47.10
2019-03-17T14:18:29.021Z,47.60
2019-03-17T14:19:36.000Z,47.60
2019-03-17T14:20:47.181Z,47.50
2019-03-17T14:21:52.911Z,47.50
2019-03-17T14:23:15.050Z,47.10
2019-03-17T14:24:21.447Z,46.50
2019-03-17T14:25:37.286Z,46.20
2019-03-17T14:26:42.187Z,46.40
2019-03-17T14:27:52.482Z,46.50
2019-03-17T14:29:07.401Z,46.60
2019-03-17T14:30:32.357Z,46.70
2019-03-17T14:31:27.576Z,46.70
2019-03-17T14:32:39.641Z,46.70
2019-03-17T14:33:47.106Z,46.40
2019-03-17T14:34:56.326Z,46.30
2019-03-17T14:36:24.563Z,45.30
2019-03-17T14:37:16.495Z,45.00
2019-03-17T14:38:29.905Z,44.80
2019-03-17T14:39:46.635Z,45.00
2019-03-17T14:40:57.222Z,44.50
2019-03-17T14:42:00.552Z,43.80
2019-03-17T14:43:04.836Z,44.30
2019-03-17T14:44:09.723Z,44.60
2019-03-17T14:45:16.171Z,44.10
2019-03-17T14:46:24.881Z,44.20
2019-03-17T14:47:43.387Z,44.60
2019-03-17T14:48:42.302Z,44.90
2019-03-17T14:49:55.821Z,44.80
2019-03-17T14:51:00.592Z,44.60
2019-03-17T14:52:11.311Z,44.90
2019-03-17T14:53:13.406Z,44.40
2019-03-17T14:54:19.821Z,44.50
2019-03-17T14:55:30.209Z,44.40
2019-03-17T14:56:44.247Z,44.40
2019-03-17T14:57:43.232Z,44.60
2019-03-17T14:58:50.901Z,44.80
2019-03-17T14:59:54.838Z,44.60
2019-03-17T15:01:00.674Z,44.30
2019-03-17T15:02:08.875Z,43.50
2019-03-17T15:03:12.937Z,43.50
2019-03-17T15:04:17.039Z,43.40
2019-03-17T15:05:25.659Z,43.60
2019-03-17T15:06:30.053Z,44.00
2019-03-17T15:07:35.825Z,43.90
2019-03-17T15:08:42.484Z,44.00
2019-03-17T15:09:46.695Z,43.80
2019-03-17T15:10:50.931Z,43.80
2019-03-17T15:11:56.382Z,43.70
2019-03-17T15:13:13.587Z,44.10
2019-03-17T15:14:08.276Z,44.40
2019-03-17T15:15:14.653Z,44.20
2019-03-17T15:16:20.224Z,44.30
2019-03-17T15:17:24.381Z,44.50
2019-03-17T15:18:28.587Z,44.30
2019-03-17T15:19:32.683Z,44.00
2019-03-17T15:20:36.989Z,42.40
2019-03-17T15:21:42.982Z,42.30
2019-03-17T15:22:51.328Z,42.20
2019-03-17T15:23:56.353Z,42.00
2019-03-17T15:25:04.031Z,42.10
2019-03-17T15:26:12.264Z,42.50
2019-03-17T15:27:17.395Z,42.80
2019-03-17T15:28:24.445Z,43.20
2019-03-17T15:29:28.642Z,42.20
2019-03-17T15:30:37.543Z,41.50
2019-03-17T15:31:41.676Z,41.60
2019-03-17T15:32:48.395Z,42.00
2019-03-17T15:33:52.555Z,42.30
2019-03-17T15:34:57.938Z,41.70
2019-03-17T15:36:03.763Z,41.80
2019-03-17T15:37:08.885Z,40.60
2019-03-17T15:38:13.147Z,40.40
2019-03-17T15:40:45.775Z,40.00
2019-03-17T15:41:51.443Z,39.00
2019-03-17T15:42:57.159Z,38.80
2019-03-17T15:44:02.897Z,38.70